Time;durP1;ratioP1;P1;durP2;ratioP2;P2;SDS_P1;SDS_P2;PMS_P1;PMS_P2;Temp;Humidity;BMP_temperature;BMP_pressure;BME280_temperature;BME280_humidity;BME280_pressure;Samples;Min_cycle;Max_cycle;Signal;HPM_P1;HPM_P2
2023/11/18 00:01:25;;;;;;;28.00;12.90;;;2.30;99.90;;;;;;5031717;28;20065;-75
2023/11/18 00:03:50;;;;;;;25.77;12.85;;;2.30;99.90;;;;;;5030283;28;20017;-75
2023/11/18 00:06:16;;;;;;;28.58;13.45;;;2.30;99.90;;;;;;5031064;28;20037;-75
2023/11/18 00:08:43;;;;;;;24.48;12.48;;;2.20;99.90;;;;;;5031375;28;20021;-76
2023/11/18 00:11:10;;;;;;;27.00;13.45;;;2.20;99.90;;;;;;5030834;28;20025;-76
2023/11/18 00:13:38;;;;;;;27.75;13.32;;;2.20;99.90;;;;;;5031025;28;20026;-75
2023/11/18 00:16:08;;;;;;;26.85;12.43;;;2.20;99.90;;;;;;5045188;28;20049;-77
2023/11/18 00:18:34;;;;;;;24.83;12.27;;;2.10;99.90;;;;;;5029400;28;20097;-76
2023/11/18 00:20:59;;;;;;;27.20;12.27;;;2.10;99.90;;;;;;5034114;28;20050;-76
2023/11/18 00:23:26;;;;;;;24.17;12.35;;;2.10;99.90;;;;;;5030326;28;20033;-75
2023/11/18 00:25:52;;;;;;;27.63;11.98;;;2.10;99.90;;;;;;5029910;28;20045;-75
2023/11/18 00:28:19;;;;;;;25.10;11.63;;;2.10;99.90;;;;;;5034911;28;20036;-75
2023/11/18 00:30:45;;;;;;;27.40;11.68;;;2.10;99.90;;;;;;5033596;28;20030;-75
2023/11/18 00:33:11;;;;;;;26.75;12.13;;;2.10;99.90;;;;;;5029673;28;20090;-75
2023/11/18 00:35:37;;;;;;;21.75;10.95;;;2.10;99.90;;;;;;5034269;28;20029;-75
2023/11/18 00:38:02;;;;;;;25.95;11.43;;;2.10;99.90;;;;;;5030326;28;20370;-75
2023/11/18 00:40:29;;;;;;;25.83;11.20;;;2.10;99.90;;;;;;5030496;28;20025;-76
2023/11/18 00:42:56;;;;;;;27.33;12.27;;;2.10;99.90;;;;;;5030834;28;20022;-78
2023/11/18 00:45:21;;;;;;;25.05;11.68;;;2.10;99.90;;;;;;5029737;28;20033;-76
2023/11/18 00:47:47;;;;;;;27.17;11.82;;;2.10;99.90;;;;;;5029472;28;20033;-75
2023/11/18 00:50:13;;;;;;;25.48;11.48;;;2.10;99.90;;;;;;5029633;28;20026;-75
2023/11/18 00:52:41;;;;;;;23.00;11.05;;;2.10;99.90;;;;;;5029683;28;20447;-74
2023/11/18 00:55:10;;;;;;;22.73;10.48;;;2.10;99.90;;;;;;5029477;28;20112;-75
2023/11/18 00:57:39;;;;;;;25.50;11.95;;;2.10;99.90;;;;;;5029992;28;20041;-76
2023/11/18 01:00:06;;;;;;;28.25;12.07;;;2.10;99.90;;;;;;5029379;28;20022;-75
2023/11/18 01:02:32;;;;;;;25.55;11.07;;;2.20;99.90;;;;;;5033177;28;20053;-75
2023/11/18 01:04:57;;;;;;;20.95;10.80;;;2.20;99.90;;;;;;5029271;28;20064;-77
2023/11/18 01:07:23;;;;;;;23.00;10.80;;;2.30;99.90;;;;;;5033616;28;20017;-76
2023/11/18 01:09:48;;;;;;;21.98;10.18;;;2.30;99.90;;;;;;5037395;28;20052;-76
2023/11/18 01:12:14;;;;;;;21.60;10.88;;;2.40;99.90;;;;;;5037615;28;21138;-77
2023/11/18 01:14:41;;;;;;;22.40;11.63;;;2.40;99.90;;;;;;5032745;28;20022;-76
2023/11/18 01:17:09;;;;;;;26.58;11.30;;;2.50;99.90;;;;;;4994176;28;1117052;-76
2023/11/18 01:19:34;;;;;;;27.80;12.10;;;2.50;99.90;;;;;;5034892;28;20026;-76
2023/11/18 01:22:00;;;;;;;23.15;11.77;;;2.60;99.90;;;;;;5038472;28;20022;-76
2023/11/18 01:24:26;;;;;;;24.20;11.43;;;2.60;99.90;;;;;;5034163;28;20409;-75
2023/11/18 01:26:52;;;;;;;29.02;12.10;;;2.60;99.90;;;;;;5032469;28;20037;-76
2023/11/18 01:29:17;;;;;;;23.70;12.13;;;2.60;99.90;;;;;;5033804;28;20060;-77
2023/11/18 01:31:43;;;;;;;21.75;11.45;;;2.70;99.90;;;;;;5033542;28;20022;-76
2023/11/18 01:34:09;;;;;;;25.83;12.65;;;2.60;99.90;;;;;;5033940;28;20021;-75
2023/11/18 01:36:35;;;;;;;24.75;11.57;;;2.60;99.90;;;;;;5038159;28;20128;-75
2023/11/18 01:39:00;;;;;;;19.80;11.23;;;2.60;99.90;;;;;;5034122;28;20422;-77
2023/11/18 01:41:26;;;;;;;25.83;11.95;;;2.60;99.90;;;;;;5037948;28;20541;-75
2023/11/18 01:43:53;;;;;;;19.70;11.32;;;2.60;99.90;;;;;;5037930;28;20025;-74
2023/11/18 01:46:19;;;;;;;24.65;12.30;;;2.70;99.90;;;;;;5033515;28;20089;-75
2023/11/18 01:48:46;;;;;;;26.20;12.02;;;2.70;99.90;;;;;;5033618;28;20029;-75
2023/11/18 01:51:12;;;;;;;22.63;11.80;;;2.70;99.90;;;;;;5037329;28;20018;-76
2023/11/18 01:53:39;;;;;;;23.75;12.35;;;2.80;99.90;;;;;;5034022;28;20094;-75
2023/11/18 01:56:06;;;;;;;23.52;12.13;;;2.80;99.90;;;;;;5033408;28;20030;-76
2023/11/18 01:58:36;;;;;;;22.63;11.77;;;2.90;99.90;;;;;;5033257;28;20025;-76
2023/11/18 02:01:03;;;;;;;24.60;12.68;;;2.90;99.90;;;;;;5032427;28;20516;-75
2023/11/18 02:03:30;;;;;;;26.73;11.93;;;2.90;99.90;;;;;;5032877;28;20084;-77
2023/11/18 02:05:56;;;;;;;21.77;11.63;;;2.90;99.90;;;;;;5033379;28;20024;-76
2023/11/18 02:08:22;;;;;;;23.80;12.00;;;3.00;99.90;;;;;;5033627;28;20079;-76
2023/11/18 02:10:53;;;;;;;24.85;12.05;;;3.00;99.90;;;;;;5032120;28;20022;-76
2023/11/18 02:13:26;;;;;;;21.98;11.50;;;3.00;99.90;;;;;;5033112;28;20167;-75
2023/11/18 02:15:59;;;;;;;21.35;11.45;;;3.10;99.90;;;;;;5032287;28;20049;-76
2023/11/18 02:18:26;;;;;;;22.83;11.07;;;3.10;99.90;;;;;;5033167;28;20093;-75
2023/11/18 02:20:54;;;;;;;23.95;12.18;;;3.20;99.90;;;;;;5032702;28;20096;-75
2023/11/18 02:23:21;;;;;;;21.38;10.68;;;3.20;99.90;;;;;;5048075;28;20044;-75
2023/11/18 02:25:48;;;;;;;23.65;11.68;;;3.20;99.90;;;;;;5033085;28;20472;-75
2023/11/18 02:28:13;;;;;;;24.08;11.30;;;3.20;99.90;;;;;;5033171;28;20044;-75
2023/11/18 02:30:54;;;;;;;24.38;11.70;;;3.20;99.90;;;;;;5037146;28;20161;-76
2023/11/18 02:33:29;;;;;;;22.30;11.75;;;3.20;99.90;;;;;;5033350;28;20037;-75
2023/11/18 02:36:05;;;;;;;21.38;11.40;;;3.20;99.90;;;;;;5033028;28;20044;-75
2023/11/18 02:38:36;;;;;;;22.15;11.02;;;3.20;99.90;;;;;;5032465;28;20111;-76
2023/11/18 02:41:09;;;;;;;24.25;12.55;;;3.20;99.90;;;;;;5033380;28;20033;-75
2023/11/18 02:43:37;;;;;;;20.13;11.63;;;3.20;99.90;;;;;;5032554;28;20091;-75
2023/11/18 02:46:04;;;;;;;19.98;11.57;;;3.20;99.90;;;;;;5032155;28;20390;-76
2023/11/18 02:48:32;;;;;;;21.23;11.48;;;3.20;99.90;;;;;;5031959;28;20072;-75
2023/11/18 02:51:01;;;;;;;21.05;11.93;;;3.20;99.90;;;;;;5032163;28;20056;-76
2023/11/18 02:53:27;;;;;;;21.70;11.63;;;3.20;99.90;;;;;;5031832;28;20030;-75
2023/11/18 02:55:53;;;;;;;24.10;12.82;;;3.20;99.90;;;;;;5032912;28;20034;-74
2023/11/18 02:58:19;;;;;;;22.13;12.32;;;3.20;99.90;;;;;;5032723;28;20036;-77
2023/11/18 03:00:45;;;;;;;24.45;12.15;;;3.20;99.90;;;;;;5031544;28;20056;-77
2023/11/18 03:03:11;;;;;;;22.63;12.43;;;3.20;99.90;;;;;;5037218;28;20393;-76
2023/11/18 03:05:37;;;;;;;23.55;12.57;;;3.20;99.90;;;;;;5032361;28;20047;-77
2023/11/18 03:08:05;;;;;;;26.05;13.30;;;3.20;99.90;;;;;;5032863;28;20026;-75
2023/11/18 03:10:34;;;;;;;25.27;13.15;;;3.30;99.90;;;;;;5031901;28;20046;-76
2023/11/18 03:13:01;;;;;;;22.02;12.10;;;3.30;99.90;;;;;;5031677;28;20024;-76
2023/11/18 03:15:27;;;;;;;21.08;11.98;;;3.30;99.90;;;;;;5031375;28;20132;-76
2023/11/18 03:17:53;;;;;;;22.10;12.70;;;3.40;99.90;;;;;;5035837;28;20029;-77
2023/11/18 03:20:20;;;;;;;21.73;12.38;;;3.40;99.90;;;;;;5031449;28;20025;-75
2023/11/18 03:22:46;;;;;;;23.83;12.93;;;3.50;99.90;;;;;;5046528;28;20039;-74
2023/11/18 03:25:13;;;;;;;23.45;13.40;;;3.40;99.90;;;;;;5032059;28;20065;-75
2023/11/18 03:27:39;;;;;;;23.35;12.77;;;3.40;99.90;;;;;;5030897;28;20014;-77
2023/11/18 03:30:09;;;;;;;23.33;12.85;;;3.40;99.90;;;;;;5031638;28;20025;-75
2023/11/18 03:32:35;;;;;;;24.55;13.43;;;3.50;99.90;;;;;;5031237;28;20526;-75
2023/11/18 03:35:11;;;;;;;21.13;11.70;;;3.50;99.90;;;;;;5035456;28;20025;-76
2023/11/18 03:37:41;;;;;;;30.75;12.77;;;3.50;99.90;;;;;;5031533;28;20029;-75
2023/11/18 03:40:11;;;;;;;23.88;12.23;;;3.50;99.90;;;;;;5030991;28;20021;-75
2023/11/18 03:42:41;;;;;;;22.77;12.27;;;3.60;99.90;;;;;;5035045;28;20041;-77
2023/11/18 03:45:09;;;;;;;21.83;12.48;;;3.60;99.90;;;;;;5046901;28;20072;-75
2023/11/18 03:47:35;;;;;;;22.55;12.43;;;3.60;99.90;;;;;;5030784;28;20021;-75
2023/11/18 03:50:01;;;;;;;22.63;12.25;;;3.50;99.90;;;;;;5035463;28;20468;-76
2023/11/18 03:52:27;;;;;;;22.75;12.07;;;3.60;99.90;;;;;;5031381;28;20045;-76
2023/11/18 03:54:55;;;;;;;21.70;12.00;;;3.60;99.90;;;;;;5030875;28;20028;-76
2023/11/18 03:57:20;;;;;;;21.48;11.90;;;3.60;99.90;;;;;;5035213;28;20769;-77
2023/11/18 03:59:46;;;;;;;22.20;12.60;;;3.50;99.90;;;;;;5029311;28;20111;-76
2023/11/18 04:02:12;;;;;;;22.33;11.60;;;3.50;99.90;;;;;;5035299;28;20026;-75
2023/11/18 04:04:38;;;;;;;24.92;12.23;;;3.50;99.90;;;;;;5030733;28;20376;-74
2023/11/18 04:07:04;;;;;;;23.10;12.32;;;3.50;99.90;;;;;;5030454;28;20026;-75
2023/11/18 04:09:30;;;;;;;21.85;11.93;;;3.50;99.90;;;;;;5030542;28;20454;-75
2023/11/18 04:11:56;;;;;;;20.98;11.70;;;3.50;99.90;;;;;;5030394;28;20362;-74
2023/11/18 04:14:21;;;;;;;24.02;12.52;;;3.50;99.90;;;;;;5029803;28;20029;-74
2023/11/18 04:16:48;;;;;;;22.85;12.05;;;3.50;99.90;;;;;;5030974;28;20053;-75
2023/11/18 04:19:14;;;;;;;23.73;12.63;;;3.50;99.90;;;;;;5030339;28;20060;-75
2023/11/18 04:21:39;;;;;;;23.13;12.45;;;3.40;99.90;;;;;;5030587;28;20022;-75
2023/11/18 04:24:06;;;;;;;26.20;13.30;;;3.50;99.90;;;;;;5030697;28;20033;-75
2023/11/18 04:26:32;;;;;;;21.58;12.48;;;3.40;99.90;;;;;;5030670;28;20159;-76
2023/11/18 04:29:01;;;;;;;26.60;13.02;;;3.40;99.90;;;;;;5030852;28;20021;-75
2023/11/18 04:31:26;;;;;;;23.83;13.10;;;3.40;99.90;;;;;;5030911;28;20422;-75
2023/11/18 04:33:55;;;;;;;23.52;12.93;;;3.40;99.90;;;;;;5030583;28;20053;-76
2023/11/18 04:36:22;;;;;;;28.23;13.43;;;3.40;99.90;;;;;;5030776;28;20064;-75
2023/11/18 04:38:47;;;;;;;25.50;12.88;;;3.50;99.90;;;;;;5030270;28;20030;-74
2023/11/18 04:41:13;;;;;;;25.30;13.30;;;3.50;99.90;;;;;;5034292;28;20018;-75
2023/11/18 04:43:40;;;;;;;26.48;13.73;;;3.50;99.90;;;;;;5030455;28;20034;-75
2023/11/18 04:46:06;;;;;;;26.23;13.32;;;3.50;99.90;;;;;;5030644;28;20018;-74
2023/11/18 04:48:32;;;;;;;23.80;12.30;;;3.60;99.90;;;;;;5031060;28;20029;-76
2023/11/18 04:50:58;;;;;;;26.73;12.80;;;3.60;99.90;;;;;;5030193;28;20014;-76
2023/11/18 04:53:25;;;;;;;25.20;13.10;;;3.60;99.90;;;;;;5029204;28;20033;-75
2023/11/18 04:55:51;;;;;;;23.80;12.68;;;3.60;99.90;;;;;;5029819;28;20045;-75
2023/11/18 04:58:17;;;;;;;23.85;12.75;;;3.60;99.90;;;;;;5029986;28;20469;-75
2023/11/18 05:00:43;;;;;;;23.48;12.27;;;3.60;99.90;;;;;;5028743;28;20056;-75
2023/11/18 05:03:14;;;;;;;22.45;13.00;;;3.60;99.90;;;;;;5030288;28;20405;-74
2023/11/18 05:05:40;;;;;;;23.75;12.93;;;3.60;99.90;;;;;;5029561;28;20033;-75
2023/11/18 05:08:06;;;;;;;22.67;12.43;;;3.60;99.90;;;;;;5027952;28;20059;-75
2023/11/18 05:10:33;;;;;;;24.45;12.65;;;3.60;99.90;;;;;;5028511;28;20026;-75
2023/11/18 05:12:59;;;;;;;27.23;12.77;;;3.60;99.90;;;;;;5031898;28;20025;-76
2023/11/18 05:15:25;;;;;;;25.23;13.77;;;3.50;99.90;;;;;;5030764;28;20412;-75
2023/11/18 05:17:54;;;;;;;25.58;12.98;;;3.50;99.90;;;;;;5030178;28;20121;-75
2023/11/18 05:20:21;;;;;;;28.88;13.50;;;3.50;99.90;;;;;;5030158;28;20053;-76
2023/11/18 05:22:49;;;;;;;27.40;13.73;;;3.50;99.90;;;;;;5030660;28;20054;-77
2023/11/18 05:25:19;;;;;;;26.42;13.48;;;3.50;99.90;;;;;;5030624;28;20026;-77
2023/11/18 05:27:45;;;;;;;29.92;14.73;;;3.50;99.90;;;;;;5029898;28;20022;-73
2023/11/18 05:30:11;;;;;;;29.00;14.25;;;3.50;99.90;;;;;;5030321;28;20363;-74
2023/11/18 05:32:37;;;;;;;28.20;14.50;;;3.60;99.90;;;;;;5030054;28;20045;-74
2023/11/18 05:35:04;;;;;;;26.13;13.90;;;3.60;99.90;;;;;;5030325;28;20022;-74
2023/11/18 05:37:35;;;;;;;27.35;14.52;;;3.60;99.90;;;;;;5030630;28;20049;-74
2023/11/18 05:40:06;;;;;;;26.73;14.07;;;3.60;99.90;;;;;;5030803;28;20033;-74
2023/11/18 05:42:36;;;;;;;29.52;14.68;;;3.50;99.90;;;;;;5030064;28;20034;-76
2023/11/18 05:45:04;;;;;;;29.30;15.27;;;3.50;99.90;;;;;;5030362;28;20033;-75
2023/11/18 05:47:30;;;;;;;31.40;15.93;;;3.50;99.90;;;;;;5029965;28;20103;-75
2023/11/18 05:49:56;;;;;;;27.73;14.80;;;3.50;99.90;;;;;;5045357;28;20022;-75
2023/11/18 05:52:23;;;;;;;29.55;14.25;;;3.50;99.90;;;;;;5033449;28;20036;-75
2023/11/18 05:54:48;;;;;;;30.25;15.23;;;3.50;99.90;;;;;;5033530;28;20108;-75
2023/11/18 05:57:18;;;;;;;31.63;15.57;;;3.50;99.90;;;;;;5032012;28;20134;-75
2023/11/18 05:59:44;;;;;;;33.72;15.77;;;3.50;99.90;;;;;;5032384;28;20029;-74
2023/11/18 06:02:17;;;;;;;28.95;16.05;;;3.60;99.90;;;;;;5032961;28;20029;-77
2023/11/18 06:04:47;;;;;;;29.20;14.93;;;3.50;99.90;;;;;;5034091;28;20017;-76
2023/11/18 06:07:13;;;;;;;30.85;16.00;;;3.60;99.90;;;;;;5032965;28;20025;-75
2023/11/18 06:09:43;;;;;;;28.30;15.65;;;3.60;99.90;;;;;;5033351;28;20068;-77
2023/11/18 06:12:10;;;;;;;27.90;15.07;;;3.60;99.90;;;;;;5033485;28;20017;-76
2023/11/18 06:14:37;;;;;;;30.40;14.82;;;3.60;99.90;;;;;;5040048;28;20025;-76
2023/11/18 06:17:02;;;;;;;32.53;15.40;;;3.70;99.90;;;;;;5033335;28;20116;-75
2023/11/18 06:19:28;;;;;;;33.10;16.83;;;3.70;99.90;;;;;;5033715;28;20092;-76
2023/11/18 06:21:54;;;;;;;32.08;16.48;;;3.70;99.90;;;;;;5033202;28;20022;-74
2023/11/18 06:24:21;;;;;;;34.15;17.40;;;3.70;99.90;;;;;;5033209;28;20021;-73
2023/11/18 06:26:49;;;;;;;36.88;18.48;;;3.80;99.90;;;;;;5033320;28;20030;-74
2023/11/18 06:29:15;;;;;;;38.47;18.65;;;3.60;99.90;;;;;;5032363;28;20029;-74
2023/11/18 06:31:41;;;;;;;32.97;17.50;;;3.70;99.90;;;;;;5039608;28;20025;-73
2023/11/18 06:34:07;;;;;;;39.90;17.55;;;3.70;99.90;;;;;;5032813;28;20104;-75
2023/11/18 06:36:33;;;;;;;34.58;17.50;;;3.70;99.90;;;;;;5032890;28;20033;-76
2023/11/18 06:38:58;;;;;;;38.47;19.15;;;3.80;99.90;;;;;;5039484;28;20036;-74
2023/11/18 06:41:25;;;;;;;40.30;18.42;;;3.80;99.90;;;;;;5039686;28;20030;-76
2023/11/18 06:43:51;;;;;;;36.15;18.73;;;3.80;99.90;;;;;;5032802;28;20047;-74
2023/11/18 06:46:29;;;;;;;34.83;18.58;;;3.80;99.90;;;;;;5032962;28;20045;-74
2023/11/18 06:48:56;;;;;;;42.42;20.20;;;3.90;99.90;;;;;;5048220;28;20144;-75
2023/11/18 06:51:27;;;;;;;40.33;19.50;;;3.90;99.90;;;;;;5032417;28;20021;-75
2023/11/18 06:53:56;;;;;;;40.63;19.75;;;3.90;99.90;;;;;;5032951;28;20021;-74
2023/11/18 06:56:22;;;;;;;46.90;21.83;;;3.90;99.90;;;;;;5032470;28;20038;-75
2023/11/18 06:58:47;;;;;;;49.67;22.83;;;3.90;99.90;;;;;;5038516;28;20028;-74
2023/11/18 07:01:14;;;;;;;52.97;23.05;;;3.90;99.90;;;;;;5032178;28;20089;-75
2023/11/18 07:03:41;;;;;;;45.35;22.00;;;4.00;99.90;;;;;;5031491;28;20408;-75
2023/11/18 07:06:09;;;;;;;53.83;22.73;;;3.90;99.90;;;;;;5031770;28;20037;-75
2023/11/18 07:08:39;;;;;;;48.25;23.73;;;4.00;99.90;;;;;;5032581;28;20029;-76
2023/11/18 07:11:05;;;;;;;55.17;24.98;;;4.00;99.90;;;;;;5030677;28;20032;-75
2023/11/18 07:13:34;;;;;;;56.10;25.48;;;4.00;99.90;;;;;;5032415;28;20044;-76
2023/11/18 07:16:02;;;;;;;56.75;24.73;;;4.00;99.90;;;;;;5031985;28;20046;-75
2023/11/18 07:18:30;;;;;;;49.50;23.88;;;4.00;99.90;;;;;;5032000;28;20041;-74
2023/11/18 07:20:56;;;;;;;52.63;23.88;;;4.00;99.90;;;;;;5032013;28;20041;-75
2023/11/18 07:23:21;;;;;;;54.95;25.42;;;4.00;99.90;;;;;;5032491;28;20029;-75
2023/11/18 07:25:47;;;;;;;57.45;25.17;;;4.00;99.90;;;;;;5032273;28;20065;-74
2023/11/18 07:28:14;;;;;;;67.82;27.67;;;4.10;99.90;;;;;;5031546;28;20041;-74
2023/11/18 07:30:47;;;;;;;65.30;27.30;;;4.10;99.90;;;;;;5031766;28;20117;-76
2023/11/18 07:33:19;;;;;;;59.75;26.73;;;4.10;99.90;;;;;;5031635;28;20080;-75
2023/11/18 07:35:47;;;;;;;58.45;27.58;;;4.20;99.90;;;;;;5031557;28;20100;-75
2023/11/18 07:38:14;;;;;;;63.58;27.52;;;4.20;99.90;;;;;;5031313;28;20026;-74
2023/11/18 07:40:45;;;;;;;62.92;27.65;;;4.20;99.90;;;;;;5038340;28;20036;-75
2023/11/18 07:43:11;;;;;;;75.32;29.98;;;4.30;99.90;;;;;;5038505;28;20089;-75
2023/11/18 07:45:39;;;;;;;73.97;30.90;;;4.30;99.90;;;;;;5030770;28;20421;-75
2023/11/18 07:48:08;;;;;;;66.65;29.48;;;4.30;99.90;;;;;;5031675;28;20117;-74
2023/11/18 07:50:40;;;;;;;71.20;30.58;;;4.30;99.90;;;;;;5031868;28;20025;-74
2023/11/18 07:53:07;;;;;;;77.13;30.73;;;4.30;99.90;;;;;;5031224;28;20120;-74
2023/11/18 07:55:39;;;;;;;78.60;31.63;;;4.30;99.90;;;;;;5031663;28;20022;-74
2023/11/18 07:58:18;;;;;;;79.00;31.27;;;4.30;99.90;;;;;;5030723;28;20088;-75
2023/11/18 08:00:45;;;;;;;88.20;33.17;;;4.30;99.90;;;;;;5019614;28;20034;-74
2023/11/18 08:03:11;;;;;;;86.07;34.75;;;4.40;99.90;;;;;;5022104;28;20093;-74
2023/11/18 08:05:45;;;;;;;82.82;33.92;;;4.40;99.90;;;;;;5036781;28;20018;-74
2023/11/18 08:08:16;;;;;;;92.35;34.95;;;4.40;99.90;;;;;;5030286;28;20060;-75
2023/11/18 08:10:43;;;;;;;87.53;34.83;;;4.40;99.90;;;;;;5031148;28;20034;-75
2023/11/18 08:13:10;;;;;;;95.40;36.70;;;4.40;99.90;;;;;;5029906;28;20032;-75
2023/11/18 08:15:39;;;;;;;103.97;36.10;;;4.50;99.90;;;;;;5032308;28;20143;-75
2023/11/18 08:18:06;;;;;;;104.85;39.22;;;4.40;99.90;;;;;;5029289;28;20030;-75
2023/11/18 08:20:32;;;;;;;111.05;39.05;;;4.50;99.90;;;;;;5030238;28;20243;-75
2023/11/18 08:22:58;;;;;;;116.45;41.60;;;4.50;99.90;;;;;;5030972;28;20022;-76
2023/11/18 08:25:24;;;;;;;120.40;41.45;;;4.50;99.90;;;;;;5031504;28;20033;-76
2023/11/18 08:27:50;;;;;;;120.40;42.20;;;4.60;99.90;;;;;;5031183;28;20117;-75
2023/11/18 08:30:17;;;;;;;131.93;43.25;;;4.60;99.90;;;;;;5030210;28;20075;-75
2023/11/18 08:32:44;;;;;;;118.85;42.20;;;4.60;99.90;;;;;;5045998;28;20030;-76
2023/11/18 08:35:14;;;;;;;141.02;43.83;;;4.60;99.90;;;;;;5030636;28;20017;-74
2023/11/18 08:37:40;;;;;;;133.38;42.03;;;4.70;99.90;;;;;;5045475;28;20033;-75
2023/11/18 08:40:20;;;;;;;143.15;45.42;;;4.70;99.90;;;;;;5036900;28;20017;-75
2023/11/18 08:42:49;;;;;;;134.98;44.15;;;4.70;99.90;;;;;;5030872;28;20009;-75
2023/11/18 08:45:27;;;;;;;166.90;49.92;;;4.70;99.90;;;;;;5029915;28;20511;-75
2023/11/18 08:47:53;;;;;;;161.85;46.88;;;4.70;99.90;;;;;;5037891;28;20809;-75
2023/11/18 08:50:19;;;;;;;167.48;50.25;;;4.70;99.90;;;;;;5030179;28;20497;-75
2023/11/18 08:52:49;;;;;;;175.90;47.40;;;4.80;99.90;;;;;;5030492;28;20034;-74
2023/11/18 08:55:20;;;;;;;177.43;52.33;;;4.80;99.90;;;;;;5031283;28;20026;-75
2023/11/18 08:57:59;;;;;;;185.48;51.20;;;4.80;99.90;;;;;;5045442;28;20419;-75
2023/11/18 09:03:17;;;;;;;187.55;44.50;;;4.70;99.90;;;;;;5030257;28;20529;-75
2023/11/18 09:05:58;;;;;;;206.07;54.83;;;4.70;99.90;;;;;;5031962;28;20029;-76
2023/11/18 09:08:38;;;;;;;193.98;49.03;;;4.80;99.90;;;;;;5031151;28;20014;-74
2023/11/18 09:11:07;;;;;;;194.23;48.35;;;4.80;99.90;;;;;;5030615;28;20021;-75
2023/11/18 09:13:34;;;;;;;222.27;52.63;;;4.80;99.90;;;;;;5030149;28;20034;-75
2023/11/18 09:16:04;;;;;;;231.55;51.75;;;4.80;99.90;;;;;;5028973;28;20045;-75
2023/11/18 09:18:32;;;;;;;205.93;50.40;;;4.90;99.90;;;;;;5044951;28;20025;-74
2023/11/18 09:21:05;;;;;;;196.18;51.35;;;4.80;99.90;;;;;;5030500;28;20068;-75
2023/11/18 09:23:37;;;;;;;170.23;50.45;;;4.80;99.90;;;;;;5030248;28;20025;-75
2023/11/18 09:26:09;;;;;;;185.48;49.65;;;4.80;99.90;;;;;;5031154;28;20165;-75
2023/11/18 09:28:36;;;;;;;184.20;48.05;;;4.80;99.90;;;;;;5034719;28;20041;-74
2023/11/18 09:31:03;;;;;;;181.27;51.92;;;4.80;99.90;;;;;;5033799;28;20032;-74
2023/11/18 09:33:34;;;;;;;176.07;51.35;;;4.90;99.90;;;;;;5034414;28;20011;-76
2023/11/18 09:36:12;;;;;;;187.10;51.60;;;4.90;99.90;;;;;;5033847;28;20025;-74
2023/11/18 09:38:41;;;;;;;171.55;49.67;;;5.00;99.90;;;;;;5040318;28;20077;-73
2023/11/18 09:41:11;;;;;;;171.38;48.42;;;5.00;99.90;;;;;;5034208;28;20524;-74
2023/11/18 09:43:47;;;;;;;178.80;50.70;;;5.00;99.90;;;;;;5034686;28;20114;-74
2023/11/18 09:46:18;;;;;;;183.38;49.50;;;5.10;99.90;;;;;;5034635;28;20125;-73
2023/11/18 09:48:52;;;;;;;180.38;50.38;;;5.10;99.90;;;;;;5034519;28;20036;-73
2023/11/18 09:51:22;;;;;;;180.00;45.95;;;5.10;99.90;;;;;;5033879;28;20026;-74
2023/11/18 09:53:53;;;;;;;174.77;49.75;;;5.10;99.90;;;;;;5048691;28;20022;-74
2023/11/18 09:56:45;;;;;;;155.15;44.22;;;5.10;99.90;;;;;;5034608;28;20115;-74
2023/11/18 09:59:34;;;;;;;171.73;47.63;;;5.10;99.90;;;;;;5030864;28;20025;-76
2023/11/18 10:02:02;;;;;;;162.18;49.13;;;5.10;99.90;;;;;;5031352;28;20022;-75
2023/11/18 10:04:28;;;;;;;165.85;46.88;;;5.10;99.90;;;;;;5032620;28;20040;-75
2023/11/18 10:06:56;;;;;;;142.77;43.60;;;5.10;99.90;;;;;;5033139;28;20018;-75
2023/11/18 10:09:37;;;;;;;156.07;48.05;;;5.10;99.90;;;;;;5033011;28;20529;-75
2023/11/18 10:12:06;;;;;;;147.20;45.92;;;5.10;99.90;;;;;;5033017;28;20037;-75
2023/11/18 10:14:35;;;;;;;132.45;39.70;;;5.10;99.90;;;;;;5032150;28;20045;-75
2023/11/18 10:17:08;;;;;;;162.60;49.70;;;5.10;99.90;;;;;;5032203;28;20053;-76
2023/11/18 10:19:56;;;;;;;142.63;43.28;;;5.10;99.90;;;;;;5033182;28;20026;-75
2023/11/18 10:22:27;;;;;;;168.18;47.38;;;5.10;99.90;;;;;;5031846;28;20091;-75
2023/11/18 10:24:54;;;;;;;151.10;47.20;;;5.10;99.90;;;;;;5039842;28;20022;-76
2023/11/18 10:27:27;;;;;;;145.57;44.00;;;5.10;99.90;;;;;;5033203;28;20029;-74
2023/11/18 10:30:18;;;;;;;157.52;47.20;;;5.20;99.90;;;;;;5038360;28;20080;-76
2023/11/18 10:32:55;;;;;;;149.05;46.40;;;5.20;99.90;;;;;;5031665;28;20064;-74
2023/11/18 10:35:21;;;;;;;153.48;47.28;;;5.20;99.90;;;;;;5039002;28;20097;-75
2023/11/18 10:37:49;;;;;;;155.75;48.25;;;5.20;99.90;;;;;;5046994;28;20080;-76
2023/11/18 10:40:15;;;;;;;132.13;39.92;;;5.20;99.90;;;;;;5032307;28;20089;-76
2023/11/18 10:42:42;;;;;;;163.20;49.38;;;5.20;99.90;;;;;;5032260;28;20025;-76
2023/11/18 10:45:12;;;;;;;144.10;48.28;;;5.20;99.90;;;;;;5032471;28;20029;-76
2023/11/18 10:47:42;;;;;;;120.03;38.35;;;5.30;99.90;;;;;;5033417;28;20018;-74
2023/11/18 10:50:12;;;;;;;140.77;44.88;;;5.30;99.90;;;;;;5033243;28;20024;-75
2023/11/18 10:52:40;;;;;;;142.93;47.40;;;5.30;99.90;;;;;;5033341;28;20481;-76
2023/11/18 10:55:12;;;;;;;136.88;43.08;;;5.30;99.90;;;;;;5032422;28;20108;-74
2023/11/18 10:57:38;;;;;;;152.10;47.08;;;5.30;99.90;;;;;;5032468;28;20042;-76
2023/11/18 11:00:18;;;;;;;143.30;45.88;;;5.30;99.90;;;;;;5032606;28;20013;-75
2023/11/18 11:02:44;;;;;;;148.30;43.92;;;5.40;99.90;;;;;;5038859;28;20022;-75
2023/11/18 11:05:15;;;;;;;142.55;44.58;;;5.40;99.90;;;;;;5032107;28;20079;-75
2023/11/18 11:07:42;;;;;;;147.82;45.53;;;5.40;99.90;;;;;;5032596;28;20018;-74
2023/11/18 11:10:10;;;;;;;167.35;47.88;;;5.40;99.90;;;;;;5032017;28;20033;-76
2023/11/18 11:12:51;;;;;;;162.02;44.47;;;5.40;99.90;;;;;;5047154;28;20022;-75
2023/11/18 11:15:22;;;;;;;148.25;46.70;;;5.40;99.90;;;;;;5032072;28;20037;-75
2023/11/18 11:18:02;;;;;;;154.50;46.45;;;5.40;99.90;;;;;;5031558;28;20044;-75
2023/11/18 11:20:35;;;;;;;165.57;50.63;;;5.50;99.90;;;;;;5032329;28;20037;-75
2023/11/18 11:23:32;;;;;;;161.98;50.50;;;5.50;99.90;;;;;;5031844;28;20029;-75
2023/11/18 11:26:13;;;;;;;162.52;49.20;;;5.50;99.90;;;;;;5032085;28;20041;-74
2023/11/18 11:29:17;;;;;;;156.68;51.05;;;5.50;99.90;;;;;;5032183;28;20032;-75
2023/11/18 11:31:48;;;;;;;142.50;44.92;;;5.60;99.90;;;;;;5047473;28;21019;-75
2023/11/18 11:34:20;;;;;;;153.52;48.50;;;5.60;99.90;;;;;;5031638;28;20030;-75
2023/11/18 11:36:50;;;;;;;155.52;49.20;;;5.70;99.90;;;;;;5032488;28;20059;-75
2023/11/18 11:39:29;;;;;;;151.57;48.53;;;5.70;99.90;;;;;;5038891;28;20425;-75
2023/11/18 11:41:56;;;;;;;152.07;48.38;;;5.60;99.90;;;;;;5030415;28;20084;-74
2023/11/18 11:44:31;;;;;;;149.60;44.63;;;5.60;99.90;;;;;;5031791;28;20053;-74
2023/11/18 11:47:00;;;;;;;144.60;45.58;;;5.60;99.90;;;;;;5031547;28;20412;-75
2023/11/18 11:49:29;;;;;;;152.88;45.45;;;5.60;99.90;;;;;;5030355;28;20034;-74
2023/11/18 11:52:20;;;;;;;147.43;47.72;;;5.60;99.90;;;;;;5031772;28;20035;-76
2023/11/18 11:54:56;;;;;;;140.93;44.55;;;5.60;99.90;;;;;;5031434;28;20068;-75
2023/11/18 11:57:22;;;;;;;142.73;47.80;;;5.60;99.90;;;;;;5030101;28;20041;-75
2023/11/18 11:59:52;;;;;;;141.50;44.13;;;5.60;99.90;;;;;;5037810;28;20026;-75
2023/11/18 12:02:24;;;;;;;139.45;45.90;;;5.60;99.90;;;;;;5030847;28;20037;-75
2023/11/18 12:04:53;;;;;;;131.13;43.92;;;5.60;99.90;;;;;;5030431;28;20025;-75
2023/11/18 12:07:23;;;;;;;137.95;44.72;;;5.60;99.90;;;;;;5031481;28;20104;-74
2023/11/18 12:09:53;;;;;;;148.52;46.00;;;5.60;99.90;;;;;;5037505;28;20025;-76
2023/11/18 12:12:21;;;;;;;131.35;44.10;;;5.60;99.90;;;;;;5031303;28;20075;-75
2023/11/18 12:14:52;;;;;;;134.65;43.78;;;5.70;99.90;;;;;;5030845;28;20235;-74
2023/11/18 12:17:21;;;;;;;136.73;45.58;;;5.70;99.90;;;;;;5030333;28;20085;-75
2023/11/18 12:19:56;;;;;;;130.80;45.45;;;5.70;99.90;;;;;;5031115;28;20089;-75
2023/11/18 12:22:33;;;;;;;135.77;44.70;;;5.70;99.90;;;;;;5030948;28;20037;-75
2023/11/18 12:24:58;;;;;;;125.10;44.15;;;5.80;99.90;;;;;;5030925;28;20025;-76
2023/11/18 12:27:51;;;;;;;118.63;42.20;;;5.80;99.90;;;;;;5031023;28;20033;-76
2023/11/18 12:30:22;;;;;;;121.57;41.08;;;6.00;99.90;;;;;;5036774;28;20049;-76
2023/11/18 12:33:03;;;;;;;113.70;41.22;;;5.90;99.90;;;;;;5031111;28;20036;-75
2023/11/18 12:35:29;;;;;;;116.97;39.90;;;5.90;99.90;;;;;;5031046;28;20127;-76
2023/11/18 12:38:28;;;;;;;115.97;41.47;;;5.90;99.90;;;;;;5030712;28;20074;-74
2023/11/18 12:40:59;;;;;;;102.00;37.33;;;5.90;99.90;;;;;;5031490;28;20021;-75
2023/11/18 12:43:48;;;;;;;114.90;39.67;;;5.90;99.90;;;;;;5029380;28;20116;-73
2023/11/18 12:46:37;;;;;;;104.88;37.97;;;5.90;99.90;;;;;;5031326;28;20479;-74